Time;durP1;ratioP1;P1;durP2;ratioP2;P2;SDS_P1;SDS_P2;PMS_P1;PMS_P2;Temp;Humidity;BMP_temperature;BMP_pressure;BME280_temperature;BME280_humidity;BME280_pressure;Samples;Min_cycle;Max_cycle;Signal;HPM_P1;HPM_P2
2023/09/16 00:00:38;;;;;;;5.93;5.20;;;;;;;;;;4987755;28;20234;-44
2023/09/16 00:03:05;;;;;;;6.70;6.00;;;;;;;;;;4974096;28;20212;-42
2023/09/16 00:05:34;;;;;;;7.27;6.17;;;;;;;;;;4986041;28;20264;-44
2023/09/16 00:08:01;;;;;;;7.27;5.00;;;;;;;;;;4993619;28;20287;-41
2023/09/16 00:10:29;;;;;;;6.63;5.97;;;;;;;;;;4982390;28;20229;-43
2023/09/16 00:12:56;;;;;;;6.10;5.30;;;;;;;;;;4989311;28;20336;-41
2023/09/16 00:15:24;;;;;;;6.50;5.83;;;;;;;;;;4981975;28;20309;-46
2023/09/16 00:17:51;;;;;;;5.30;4.80;;;;;;;;;;4985950;28;20215;-42
2023/09/16 00:20:18;;;;;;;7.00;6.30;;;;;;;;;;4991638;28;20232;-42
2023/09/16 00:22:47;;;;;;;6.20;4.63;;;;;;;;;;4992463;28;20640;-43
2023/09/16 00:25:15;;;;;;;7.03;5.00;;;;;;;;;;4980703;28;20204;-45
2023/09/16 00:27:44;;;;;;;6.90;5.77;;;;;;;;;;4979487;28;20678;-41
2023/09/16 00:30:11;;;;;;;7.13;6.43;;;;;;;;;;4978581;28;20225;-42
2023/09/16 00:32:39;;;;;;;8.40;5.80;;;;;;;;;;4995722;28;20212;-43
2023/09/16 00:35:08;;;;;;;8.00;6.60;;;;;;;;;;4990148;28;20685;-43
2023/09/16 00:37:35;;;;;;;6.03;5.40;;;;;;;;;;4984286;28;20320;-41
2023/09/16 00:40:03;;;;;;;5.33;4.83;;;;;;;;;;4989544;28;20252;-41
2023/09/16 00:42:30;;;;;;;6.60;5.90;;;;;;;;;;4984272;28;20257;-39
2023/09/16 00:44:59;;;;;;;7.83;6.50;;;;;;;;;;4991731;28;20205;-44
2023/09/16 00:47:26;;;;;;;7.17;5.60;;;;;;;;;;4982637;28;20258;-43
2023/09/16 00:49:53;;;;;;;6.30;5.67;;;;;;;;;;4989620;28;20232;-39
2023/09/16 00:52:20;;;;;;;7.43;6.17;;;;;;;;;;4973035;28;20675;-41
2023/09/16 00:54:50;;;;;;;5.73;5.20;;;;;;;;;;4970770;28;20643;-41
2023/09/16 00:57:18;;;;;;;6.17;5.43;;;;;;;;;;4987770;28;20275;-40
2023/09/16 00:59:46;;;;;;;6.43;5.80;;;;;;;;;;4991468;28;20231;-43
2023/09/16 01:02:15;;;;;;;6.03;5.40;;;;;;;;;;4979950;28;20217;-43
2023/09/16 01:04:43;;;;;;;7.37;5.83;;;;;;;;;;4989683;28;20215;-44
2023/09/16 01:07:11;;;;;;;6.57;5.83;;;;;;;;;;4973810;28;20209;-42
2023/09/16 01:09:39;;;;;;;9.50;5.93;;;;;;;;;;4977445;28;20232;-41
2023/09/16 01:12:07;;;;;;;7.27;6.17;;;;;;;;;;4988106;28;20461;-40
2023/09/16 01:14:34;;;;;;;6.47;5.63;;;;;;;;;;4979444;28;20204;-43
2023/09/16 01:17:04;;;;;;;7.57;6.67;;;;;;;;;;4979965;28;20221;-38
2023/09/16 01:19:40;;;;;;;5.83;5.20;;;;;;;;;;4974470;28;20237;-44
2023/09/16 01:22:09;;;;;;;7.87;6.00;;;;;;;;;;4976318;28;20214;-39
2023/09/16 01:24:36;;;;;;;6.70;5.20;;;;;;;;;;4983906;28;20830;-43
2023/09/16 01:27:05;;;;;;;7.47;5.70;;;;;;;;;;4984134;28;20233;-44
2023/09/16 01:29:32;;;;;;;6.50;5.10;;;;;;;;;;4987571;28;20271;-46
2023/09/16 01:32:01;;;;;;;5.97;5.37;;;;;;;;;;4979531;28;20209;-41
2023/09/16 01:34:33;;;;;;;7.80;5.10;;;;;;;;;;4975753;28;20245;-41
2023/09/16 01:37:00;;;;;;;7.13;5.40;;;;;;;;;;4983580;28;20225;-43
2023/09/16 01:39:30;;;;;;;7.87;5.53;;;;;;;;;;4970756;28;20260;-43
2023/09/16 01:41:57;;;;;;;6.77;5.30;;;;;;;;;;4973307;28;20206;-44
2023/09/16 01:44:26;;;;;;;8.30;5.23;;;;;;;;;;4974113;28;20212;-41
2023/09/16 01:46:55;;;;;;;7.37;5.93;;;;;;;;;;4984538;28;20206;-43
2023/09/16 01:49:23;;;;;;;7.87;5.53;;;;;;;;;;4973767;28;20241;-44
2023/09/16 01:51:50;;;;;;;6.13;5.53;;;;;;;;;;4980378;28;20229;-43
2023/09/16 01:54:17;;;;;;;5.37;4.80;;;;;;;;;;4982512;28;20212;-43
2023/09/16 01:56:45;;;;;;;6.17;5.57;;;;;;;;;;4990159;28;20310;-41
2023/09/16 01:59:12;;;;;;;5.93;5.17;;;;;;;;;;4975537;28;20239;-43
2023/09/16 02:01:41;;;;;;;5.60;5.00;;;;;;;;;;4983410;28;20693;-44
2023/09/16 02:04:08;;;;;;;5.20;4.70;;;;;;;;;;4986062;28;20322;-44
2023/09/16 02:06:35;;;;;;;5.83;5.33;;;;;;;;;;4983855;28;20467;-41
2023/09/16 02:09:02;;;;;;;5.40;4.87;;;;;;;;;;4991010;28;20526;-42
2023/09/16 02:11:30;;;;;;;6.13;5.53;;;;;;;;;;4984490;28;20215;-43
2023/09/16 02:13:58;;;;;;;9.47;5.80;;;;;;;;;;4992279;28;20247;-43
2023/09/16 02:16:25;;;;;;;5.90;5.10;;;;;;;;;;4993161;28;20669;-43
2023/09/16 02:18:53;;;;;;;6.37;5.77;;;;;;;;;;4990181;28;20217;-44
2023/09/16 02:21:22;;;;;;;7.63;5.53;;;;;;;;;;4977174;28;20209;-44
2023/09/16 02:23:49;;;;;;;6.73;4.93;;;;;;;;;;4986579;28;20570;-45
2023/09/16 02:26:16;;;;;;;5.87;5.00;;;;;;;;;;4976510;28;20201;-42
2023/09/16 02:28:43;;;;;;;5.23;4.60;;;;;;;;;;4990323;28;20218;-40
2023/09/16 02:31:10;;;;;;;5.03;4.57;;;;;;;;;;4991452;28;20291;-44
2023/09/16 02:33:38;;;;;;;4.60;4.20;;;;;;;;;;4985642;28;20209;-41
2023/09/16 02:36:07;;;;;;;5.87;5.03;;;;;;;;;;4982955;28;20295;-44
2023/09/16 02:38:34;;;;;;;5.40;4.90;;;;;;;;;;4970689;28;20213;-45
2023/09/16 02:41:02;;;;;;;6.10;4.60;;;;;;;;;;4983116;28;20238;-43
2023/09/16 02:43:29;;;;;;;5.00;4.27;;;;;;;;;;4989701;28;20207;-41
2023/09/16 02:45:57;;;;;;;4.70;3.90;;;;;;;;;;4989918;28;20214;-45
2023/09/16 02:48:24;;;;;;;5.43;4.93;;;;;;;;;;4985872;28;20196;-42
2023/09/16 02:50:51;;;;;;;8.33;5.43;;;;;;;;;;4970707;28;20233;-44
2023/09/16 02:53:20;;;;;;;6.63;4.87;;;;;;;;;;4989511;28;20295;-43
2023/09/16 02:55:47;;;;;;;7.97;5.10;;;;;;;;;;4976063;28;20215;-43
2023/09/16 02:58:14;;;;;;;5.73;5.13;;;;;;;;;;4980374;28;20229;-42
2023/09/16 03:00:44;;;;;;;6.47;5.07;;;;;;;;;;4975732;28;20232;-43
2023/09/16 03:03:11;;;;;;;6.03;5.43;;;;;;;;;;4980654;28;20411;-45
2023/09/16 03:05:39;;;;;;;5.57;5.07;;;;;;;;;;4990006;28;20214;-44
2023/09/16 03:08:06;;;;;;;5.83;5.23;;;;;;;;;;4984301;28;20201;-45
2023/09/16 03:10:35;;;;;;;5.73;5.17;;;;;;;;;;4987716;28;20228;-41
2023/09/16 03:13:02;;;;;;;6.07;5.40;;;;;;;;;;4980946;28;20296;-43
2023/09/16 03:15:29;;;;;;;5.70;5.10;;;;;;;;;;4989827;28;20627;-45
2023/09/16 03:17:56;;;;;;;6.63;5.40;;;;;;;;;;4989533;28;20220;-42
2023/09/16 03:20:23;;;;;;;6.30;5.70;;;;;;;;;;4984226;28;20244;-43
2023/09/16 03:22:50;;;;;;;5.33;4.40;;;;;;;;;;4979232;28;20205;-39
2023/09/16 03:25:18;;;;;;;7.10;4.90;;;;;;;;;;4968163;28;20276;-44
2023/09/16 03:27:46;;;;;;;5.97;5.37;;;;;;;;;;4982736;28;20205;-43
2023/09/16 03:30:17;;;;;;;5.80;5.10;;;;;;;;;;4973496;28;20224;-43
2023/09/16 03:32:44;;;;;;;6.70;5.00;;;;;;;;;;4983823;28;20716;-43
2023/09/16 03:35:11;;;;;;;5.83;5.23;;;;;;;;;;4980969;28;20225;-45
2023/09/16 03:37:39;;;;;;;5.07;4.67;;;;;;;;;;4992977;28;20231;-40
2023/09/16 03:40:07;;;;;;;6.53;4.67;;;;;;;;;;4975903;28;20272;-44
2023/09/16 03:42:34;;;;;;;5.77;4.40;;;;;;;;;;4989062;28;20213;-45
2023/09/16 03:45:02;;;;;;;6.73;5.23;;;;;;;;;;4988320;28;20218;-46
2023/09/16 03:47:29;;;;;;;6.17;4.03;;;;;;;;;;4980871;28;20477;-44
2023/09/16 03:49:57;;;;;;;4.97;4.50;;;;;;;;;;4990646;28;20220;-42
2023/09/16 03:52:24;;;;;;;4.40;4.00;;;;;;;;;;4984407;28;20232;-38
2023/09/16 03:54:51;;;;;;;6.47;5.00;;;;;;;;;;4978310;28;20211;-42
2023/09/16 03:57:18;;;;;;;5.60;4.83;;;;;;;;;;4976976;28;20234;-42
2023/09/16 03:59:45;;;;;;;4.67;4.27;;;;;;;;;;4984584;28;20220;-43
2023/09/16 04:02:14;;;;;;;4.77;4.30;;;;;;;;;;4984196;28;20291;-42
2023/09/16 04:04:41;;;;;;;5.40;3.87;;;;;;;;;;4986254;28;20204;-40
2023/09/16 04:07:08;;;;;;;5.37;4.57;;;;;;;;;;4976718;28;20292;-42
2023/09/16 04:09:35;;;;;;;5.17;4.50;;;;;;;;;;4985769;28;20224;-44
2023/09/16 04:12:03;;;;;;;4.87;4.33;;;;;;;;;;4986113;28;20294;-43
2023/09/16 04:14:30;;;;;;;4.50;4.10;;;;;;;;;;4983879;28;20220;-41
2023/09/16 04:16:57;;;;;;;5.07;4.57;;;;;;;;;;4984748;28;20228;-43
2023/09/16 04:19:26;;;;;;;4.70;4.00;;;;;;;;;;4988654;28;20234;-42
2023/09/16 04:21:54;;;;;;;4.70;4.30;;;;;;;;;;4983545;28;20209;-41
2023/09/16 04:24:22;;;;;;;4.70;4.30;;;;;;;;;;4982188;28;20204;-43
2023/09/16 04:26:49;;;;;;;4.70;4.27;;;;;;;;;;4978959;28;20215;-44
2023/09/16 04:29:16;;;;;;;6.37;4.90;;;;;;;;;;4991336;28;20227;-42
2023/09/16 04:31:43;;;;;;;4.73;4.10;;;;;;;;;;4984544;28;20200;-45
2023/09/16 04:34:10;;;;;;;5.67;4.17;;;;;;;;;;4982267;28;20215;-43
2023/09/16 04:36:40;;;;;;;4.10;3.70;;;;;;;;;;4980613;28;20211;-43
2023/09/16 04:39:08;;;;;;;6.20;4.33;;;;;;;;;;4977171;28;20435;-42
2023/09/16 04:44:07;;;;;;;4.43;4.03;;;;;;;;;;4990181;28;20298;-29
2023/09/16 04:46:35;;;;;;;4.33;3.93;;;;;;;;;;4990657;28;20203;-33
2023/09/16 04:49:02;;;;;;;6.63;4.00;;;;;;;;;;4991434;28;20319;-28
2023/09/16 04:51:29;;;;;;;3.90;3.53;;;;;;;;;;4986932;28;20318;-31
2023/09/16 04:53:57;;;;;;;5.03;4.43;;;;;;;;;;4987599;28;20640;-34
2023/09/16 04:56:25;;;;;;;6.07;4.63;;;;;;;;;;4982265;28;20236;-33
2023/09/16 04:58:52;;;;;;;6.30;5.33;;;;;;;;;;4989505;28;20224;-29
2023/09/16 05:01:24;;;;;;;6.43;4.63;;;;;;;;;;4989647;28;20236;-33
2023/09/16 05:04:06;;;;;;;4.37;3.80;;;;;;;;;;4993617;28;20200;-30
2023/09/16 05:06:33;;;;;;;5.70;4.20;;;;;;;;;;4985168;28;20300;-30
2023/09/16 05:09:01;;;;;;;5.63;4.37;;;;;;;;;;4992282;28;20215;-32
2023/09/16 05:11:28;;;;;;;4.83;4.37;;;;;;;;;;4984220;28;20204;-28
2023/09/16 05:13:56;;;;;;;5.03;4.57;;;;;;;;;;4993433;28;20267;-32
2023/09/16 05:16:23;;;;;;;5.07;4.43;;;;;;;;;;4993920;28;20286;-29
2023/09/16 05:18:50;;;;;;;8.50;4.50;;;;;;;;;;4986249;28;20306;-30
2023/09/16 05:21:17;;;;;;;4.50;4.10;;;;;;;;;;4989888;28;20203;-30
2023/09/16 05:23:44;;;;;;;5.30;4.57;;;;;;;;;;4992965;28;20414;-30
2023/09/16 05:26:14;;;;;;;5.47;4.83;;;;;;;;;;4986799;28;20208;-33
2023/09/16 05:28:41;;;;;;;5.17;4.67;;;;;;;;;;4992809;28;20196;-31
2023/09/16 05:31:08;;;;;;;6.20;5.10;;;;;;;;;;4993620;28;20201;-32
2023/09/16 05:33:35;;;;;;;4.83;4.43;;;;;;;;;;4989798;28;20218;-31
2023/09/16 05:36:02;;;;;;;5.27;4.77;;;;;;;;;;4988728;28;20335;-30
2023/09/16 05:38:29;;;;;;;7.03;4.80;;;;;;;;;;4994506;28;20236;-33
2023/09/16 05:40:56;;;;;;;5.97;5.33;;;;;;;;;;4986010;28;20251;-29
2023/09/16 05:43:25;;;;;;;7.63;5.83;;;;;;;;;;4992423;28;20262;-32
2023/09/16 05:45:53;;;;;;;9.53;5.47;;;;;;;;;;4991394;28;20237;-28
2023/09/16 05:48:21;;;;;;;5.43;4.93;;;;;;;;;;4988556;28;20204;-31
2023/09/16 05:50:56;;;;;;;9.67;5.53;;;;;;;;;;4982381;28;20232;-33
2023/09/16 05:53:23;;;;;;;6.83;5.37;;;;;;;;;;4991877;28;20200;-29
2023/09/16 05:55:50;;;;;;;8.80;4.80;;;;;;;;;;4984863;28;20211;-32
2023/09/16 05:58:17;;;;;;;10.03;5.27;;;;;;;;;;4991836;28;20224;-33
2023/09/16 06:00:50;;;;;;;9.87;5.67;;;;;;;;;;4984592;28;20230;-30
2023/09/16 06:03:17;;;;;;;6.40;5.13;;;;;;;;;;4987139;28;20303;-31
2023/09/16 06:05:44;;;;;;;5.90;5.30;;;;;;;;;;4985278;28;20243;-31
2023/09/16 06:08:14;;;;;;;5.83;5.23;;;;;;;;;;4992490;28;20233;-28
2023/09/16 06:10:41;;;;;;;6.03;5.10;;;;;;;;;;4981115;28;20225;-31
2023/09/16 06:13:08;;;;;;;5.43;4.93;;;;;;;;;;4990776;28;20206;-31
2023/09/16 06:15:36;;;;;;;5.33;4.83;;;;;;;;;;4992425;28;20217;-32
2023/09/16 06:18:06;;;;;;;5.20;4.70;;;;;;;;;;4985582;28;20226;-34
2023/09/16 06:20:33;;;;;;;5.30;4.80;;;;;;;;;;4992523;28;20227;-33
2023/09/16 06:23:03;;;;;;;5.07;4.57;;;;;;;;;;4992816;28;20250;-29
2023/09/16 06:25:30;;;;;;;6.90;5.57;;;;;;;;;;4989263;28;20217;-30
2023/09/16 06:27:59;;;;;;;8.47;5.33;;;;;;;;;;4991034;28;20208;-28
2023/09/16 06:30:26;;;;;;;5.53;4.70;;;;;;;;;;4992556;28;20257;-30
2023/09/16 06:32:53;;;;;;;6.60;4.67;;;;;;;;;;4989280;28;20204;-32
2023/09/16 06:35:22;;;;;;;5.17;4.67;;;;;;;;;;4988542;28;20202;-29
2023/09/16 06:37:49;;;;;;;5.07;4.50;;;;;;;;;;4984672;28;20233;-29
2023/09/16 06:40:17;;;;;;;5.17;4.67;;;;;;;;;;4985199;28;20226;-32
2023/09/16 06:42:44;;;;;;;5.50;5.00;;;;;;;;;;4983967;28;20216;-28
2023/09/16 06:45:12;;;;;;;6.50;5.07;;;;;;;;;;4991932;28;20226;-29
2023/09/16 06:47:39;;;;;;;6.47;4.67;;;;;;;;;;4986827;28;20204;-29
2023/09/16 06:50:08;;;;;;;5.63;4.77;;;;;;;;;;4973124;28;20225;-31
2023/09/16 06:52:37;;;;;;;5.70;5.20;;;;;;;;;;4990456;28;20208;-31
2023/09/16 06:55:04;;;;;;;6.23;4.77;;;;;;;;;;4985470;28;20206;-31
2023/09/16 06:57:31;;;;;;;6.33;5.03;;;;;;;;;;4989605;28;20212;-32
2023/09/16 06:59:59;;;;;;;6.13;5.40;;;;;;;;;;4992211;28;20233;-30
2023/09/16 07:02:26;;;;;;;6.40;5.80;;;;;;;;;;4991898;28;20231;-31
2023/09/16 07:04:55;;;;;;;7.13;6.07;;;;;;;;;;4988259;28;20205;-28
2023/09/16 07:07:23;;;;;;;8.73;7.07;;;;;;;;;;4991957;28;20244;-32
2023/09/16 07:09:53;;;;;;;7.23;5.53;;;;;;;;;;4976916;28;20228;-30
2023/09/16 07:12:20;;;;;;;6.03;5.43;;;;;;;;;;4992294;28;20235;-33
2023/09/16 07:14:48;;;;;;;8.07;6.50;;;;;;;;;;4995766;28;20239;-33
2023/09/16 07:17:15;;;;;;;8.73;6.03;;;;;;;;;;4996303;28;20205;-30
2023/09/16 07:19:45;;;;;;;7.30;6.13;;;;;;;;;;4985600;28;20239;-32
2023/09/16 07:22:12;;;;;;;9.50;6.70;;;;;;;;;;4991977;28;20233;-29
2023/09/16 07:24:56;;;;;;;7.17;6.47;;;;;;;;;;4985831;28;20213;-31
2023/09/16 07:27:23;;;;;;;6.63;5.97;;;;;;;;;;4993137;28;20268;-30
2023/09/16 07:29:50;;;;;;;7.93;6.10;;;;;;;;;;4989931;28;20224;-31
2023/09/16 07:32:17;;;;;;;7.27;6.57;;;;;;;;;;4996235;28;20300;-32
2023/09/16 07:34:45;;;;;;;5.83;5.33;;;;;;;;;;4987130;28;20254;-30
2023/09/16 07:37:12;;;;;;;10.40;6.90;;;;;;;;;;4997131;28;20201;-29
2023/09/16 07:39:39;;;;;;;6.00;5.40;;;;;;;;;;4989155;28;20236;-33
2023/09/16 07:42:08;;;;;;;7.50;6.27;;;;;;;;;;4989425;28;20208;-29
2023/09/16 07:44:35;;;;;;;5.50;4.97;;;;;;;;;;4994571;28;20408;-29
2023/09/16 07:47:02;;;;;;;9.97;6.97;;;;;;;;;;4995591;28;20208;-30
2023/09/16 07:49:29;;;;;;;6.17;5.13;;;;;;;;;;4988365;28;20319;-29
2023/09/16 07:51:56;;;;;;;5.93;5.33;;;;;;;;;;4991709;28;20204;-30
2023/09/16 07:54:23;;;;;;;6.23;5.63;;;;;;;;;;4990728;28;20207;-29
2023/09/16 07:56:50;;;;;;;5.43;4.93;;;;;;;;;;4982558;28;20300;-29
2023/09/16 07:59:20;;;;;;;9.37;7.20;;;;;;;;;;4993142;28;20232;-30
2023/09/16 08:01:47;;;;;;;8.07;7.27;;;;;;;;;;4993733;28;20299;-32
2023/09/16 08:04:14;;;;;;;7.67;5.70;;;;;;;;;;4990962;28;20212;-32
2023/09/16 08:06:41;;;;;;;5.20;4.70;;;;;;;;;;4992516;28;20301;-40
2023/09/16 08:09:09;;;;;;;6.27;5.27;;;;;;;;;;4982015;28;20252;-41
2023/09/16 08:11:36;;;;;;;10.30;7.77;;;;;;;;;;4988154;28;20290;-39
2023/09/16 08:14:11;;;;;;;8.97;7.77;;;;;;;;;;4994736;28;20215;-37
2023/09/16 08:16:39;;;;;;;7.97;7.17;;;;;;;;;;4990815;28;20292;-34
2023/09/16 08:19:06;;;;;;;9.20;7.70;;;;;;;;;;4993494;28;20255;-40
2023/09/16 08:21:34;;;;;;;11.37;8.63;;;;;;;;;;4994091;28;20220;-40
2023/09/16 08:24:01;;;;;;;6.70;5.93;;;;;;;;;;4994005;28;20553;-41
2023/09/16 08:26:28;;;;;;;8.67;6.57;;;;;;;;;;4984737;28;20204;-35
2023/09/16 08:28:56;;;;;;;8.83;7.70;;;;;;;;;;4988858;28;20237;-36
2023/09/16 08:31:23;;;;;;;8.23;7.43;;;;;;;;;;4990076;28;20216;-33
2023/09/16 08:33:51;;;;;;;7.80;6.87;;;;;;;;;;4994340;28;20216;-39
2023/09/16 08:36:20;;;;;;;7.80;6.97;;;;;;;;;;4988223;28;20304;-36
2023/09/16 08:38:47;;;;;;;8.20;6.37;;;;;;;;;;4984479;28;20236;-40
2023/09/16 08:41:19;;;;;;;6.53;5.80;;;;;;;;;;4993540;28;20205;-37
2023/09/16 08:43:47;;;;;;;7.80;6.07;;;;;;;;;;4996656;28;20268;-35
2023/09/16 08:46:17;;;;;;;6.53;5.83;;;;;;;;;;4995257;28;20209;-38
2023/09/16 08:48:47;;;;;;;10.27;6.03;;;;;;;;;;4991521;28;20206;-35
2023/09/16 08:51:18;;;;;;;7.43;6.23;;;;;;;;;;4993729;28;20209;-39
2023/09/16 08:53:45;;;;;;;8.17;6.50;;;;;;;;;;4988849;28;20208;-41
2023/09/16 08:56:14;;;;;;;7.13;6.43;;;;;;;;;;4980774;28;20310;-43
2023/09/16 08:58:42;;;;;;;6.77;6.07;;;;;;;;;;4988969;28;20277;-44
2023/09/16 09:01:12;;;;;;;6.43;5.83;;;;;;;;;;4993785;28;20301;-38
2023/09/16 09:03:39;;;;;;;5.50;5.00;;;;;;;;;;4982780;28;20282;-40
2023/09/16 09:06:11;;;;;;;5.83;5.20;;;;;;;;;;4990683;28;20202;-36
2023/09/16 09:08:39;;;;;;;6.10;5.50;;;;;;;;;;4993248;28;20204;-35
2023/09/16 09:11:10;;;;;;;5.10;4.63;;;;;;;;;;4984462;28;20203;-36
2023/09/16 09:13:38;;;;;;;5.43;4.70;;;;;;;;;;4991013;28;20204;-40
2023/09/16 09:16:05;;;;;;;5.33;4.83;;;;;;;;;;4993950;28;20263;-39
2023/09/16 09:18:34;;;;;;;5.50;5.00;;;;;;;;;;4988100;28;20223;-41
2023/09/16 09:21:01;;;;;;;6.03;5.13;;;;;;;;;;4994920;28;20227;-42
2023/09/16 09:23:29;;;;;;;5.75;5.18;;;;;;;;;;4986635;28;20204;-36
2023/09/16 09:25:57;;;;;;;5.70;5.20;;;;;;;;;;4980824;28;20395;-36
2023/09/16 09:28:24;;;;;;;5.50;4.97;;;;;;;;;;4988636;28;20215;-40
2023/09/16 09:30:52;;;;;;;6.00;4.63;;;;;;;;;;4987135;28;20412;-38
2023/09/16 09:33:20;;;;;;;4.57;4.18;;;;;;;;;;4988019;28;20295;-37
2023/09/16 09:35:48;;;;;;;6.45;5.10;;;;;;;;;;4986347;28;20214;-39
2023/09/16 09:38:17;;;;;;;4.30;3.85;;;;;;;;;;4979851;28;20196;-40
2023/09/16 09:40:58;;;;;;;4.93;4.10;;;;;;;;;;4983557;28;20231;-41
2023/09/16 09:43:29;;;;;;;4.97;4.30;;;;;;;;;;4993012;28;20212;-33
2023/09/16 09:45:57;;;;;;;4.72;4.32;;;;;;;;;;4993309;28;20207;-39
2023/09/16 09:48:24;;;;;;;4.63;4.22;;;;;;;;;;4987236;28;20204;-39
2023/09/16 09:50:51;;;;;;;4.75;4.20;;;;;;;;;;4991658;28;20319;-35
2023/09/16 09:53:18;;;;;;;4.85;4.35;;;;;;;;;;4992770;28;20215;-41
2023/09/16 09:55:45;;;;;;;4.00;3.60;;;;;;;;;;4977722;28;20208;-39
2023/09/16 09:58:12;;;;;;;4.50;4.10;;;;;;;;;;4992507;28;20204;-36
2023/09/16 10:00:46;;;;;;;4.05;3.65;;;;;;;;;;4994102;28;20235;-37
2023/09/16 10:03:14;;;;;;;5.78;4.15;;;;;;;;;;4994586;28;20198;-44
2023/09/16 10:05:41;;;;;;;4.55;4.05;;;;;;;;;;4990858;28;20221;-40
2023/09/16 10:08:08;;;;;;;4.13;3.75;;;;;;;;;;4992971;28;20294;-39
2023/09/16 10:10:36;;;;;;;3.88;3.17;;;;;;;;;;4987709;28;20227;-32
2023/09/16 10:13:03;;;;;;;5.03;3.80;;;;;;;;;;4989595;28;20612;-37
2023/09/16 10:15:32;;;;;;;4.20;3.30;;;;;;;;;;4993102;28;20208;-34
2023/09/16 10:18:00;;;;;;;7.78;6.00;;;;;;;;;;4989243;28;20283;-37
2023/09/16 10:20:30;;;;;;;3.60;3.30;;;;;;;;;;4988016;28;20227;-41
2023/09/16 10:22:58;;;;;;;3.13;2.92;;;;;;;;;;4992531;28;20283;-36
2023/09/16 10:25:25;;;;;;;3.42;3.10;;;;;;;;;;4983067;28;20204;-34
2023/09/16 10:27:57;;;;;;;3.75;3.08;;;;;;;;;;4989402;28;20211;-37
2023/09/16 10:30:25;;;;;;;3.00;2.80;;;;;;;;;;4992541;28;20231;-35
2023/09/16 10:32:53;;;;;;;2.55;2.35;;;;;;;;;;4989904;28;20208;-33
2023/09/16 10:35:22;;;;;;;2.83;2.60;;;;;;;;;;4990546;28;20208;-37
2023/09/16 10:37:50;;;;;;;2.80;2.60;;;;;;;;;;4990723;28;20204;-38
2023/09/16 10:40:18;;;;;;;2.80;2.60;;;;;;;;;;4986179;28;20322;-37
2023/09/16 10:42:46;;;;;;;3.55;3.33;;;;;;;;;;4991814;28;20310;-36
2023/09/16 10:45:14;;;;;;;2.92;2.72;;;;;;;;;;5222010;22;20232;-44
2023/09/16 10:47:41;;;;;;;3.25;3.03;;;;;;;;;;4995942;28;20275;-42
2023/09/16 10:50:09;;;;;;;2.95;2.70;;;;;;;;;;4984058;28;20220;-44
2023/09/16 10:52:41;;;;;;;2.50;2.30;;;;;;;;;;4988164;28;20212;-45
2023/09/16 10:55:10;;;;;;;3.10;2.80;;;;;;;;;;4977445;28;20670;-46
2023/09/16 10:57:38;;;;;;;2.83;2.63;;;;;;;;;;4988219;28;20295;-43
2023/09/16 11:00:10;;;;;;;3.03;2.83;;;;;;;;;;4985655;28;20223;-43
2023/09/16 11:02:42;;;;;;;3.10;2.90;;;;;;;;;;4993930;28;20219;-45
2023/09/16 11:05:09;;;;;;;3.42;3.13;;;;;;;;;;4990684;28;20219;-43
2023/09/16 11:07:37;;;;;;;2.60;2.40;;;;;;;;;;4995533;28;20295;-42
2023/09/16 11:10:06;;;;;;;2.20;2.00;;;;;;;;;;4982626;28;20244;-45
2023/09/16 11:12:34;;;;;;;2.90;2.40;;;;;;;;;;4990699;28;20211;-44
2023/09/16 11:15:06;;;;;;;2.58;2.38;;;;;;;;;;4994167;28;20294;-45
2023/09/16 11:17:33;;;;;;;4.07;2.10;;;;;;;;;;4996230;28;20206;-41
2023/09/16 11:20:11;;;;;;;2.38;2.28;;;;;;;;;;4995252;28;20884;-45
2023/09/16 11:22:39;;;;;;;2.45;2.25;;;;;;;;;;4991017;28;20211;-44
2023/09/16 11:25:12;;;;;;;2.20;2.10;;;;;;;;;;4982779;28;20204;-45
2023/09/16 11:27:39;;;;;;;2.30;2.10;;;;;;;;;;4992362;28;20287;-43
2023/09/16 11:30:11;;;;;;;4.32;2.25;;;;;;;;;;4995384;28;20310;-41
2023/09/16 11:32:39;;;;;;;2.15;2.05;;;;;;;;;;4994040;28;20218;-40
2023/09/16 11:35:07;;;;;;;1.95;1.85;;;;;;;;;;4989330;28;20650;-43
2023/09/16 11:37:35;;;;;;;2.20;2.10;;;;;;;;;;4995420;28;20218;-39
2023/09/16 11:40:02;;;;;;;2.10;2.00;;;;;;;;;;4991516;28;20226;-41
2023/09/16 11:42:31;;;;;;;2.50;2.25;;;;;;;;;;4993107;28;20255;-44
2023/09/16 11:44:58;;;;;;;2.58;2.30;;;;;;;;;;4995109;28;20220;-44
2023/09/16 11:47:26;;;;;;;2.35;2.15;;;;;;;;;;4992046;28;20335;-39
2023/09/16 11:49:53;;;;;;;2.10;2.00;;;;;;;;;;4989464;28;20303;-40
2023/09/16 11:52:20;;;;;;;2.10;1.90;;;;;;;;;;4995333;28;20206;-45
2023/09/16 11:54:48;;;;;;;2.25;2.05;;;;;;;;;;4986044;28;20224;-40
2023/09/16 11:57:15;;;;;;;1.67;1.58;;;;;;;;;;4990295;28;20204;-42
2023/09/16 11:59:43;;;;;;;1.63;1.52;;;;;;;;;;4994897;28;20231;-40
2023/09/16 12:02:11;;;;;;;1.77;1.40;;;;;;;;;;4993871;28;20215;-45
2023/09/16 12:04:39;;;;;;;1.38;1.27;;;;;;;;;;4986312;28;20214;-43
2023/09/16 12:07:07;;;;;;;1.58;1.50;;;;;;;;;;4987320;28;20227;-45
2023/09/16 12:09:34;;;;;;;1.77;1.67;;;;;;;;;;4989390;28;20232;-43
2023/09/16 12:12:05;;;;;;;1.67;1.50;;;;;;;;;;4996413;28;20233;-44
2023/09/16 12:14:32;;;;;;;2.00;1.90;;;;;;;;;;4993440;28;20239;-39
2023/09/16 12:17:00;;;;;;;1.52;1.42;;;;;;;;;;4992847;28;20212;-45
2023/09/16 12:19:28;;;;;;;1.35;1.25;;;;;;;;;;4986156;28;20229;-41
2023/09/16 12:21:55;;;;;;;1.88;1.75;;;;;;;;;;4992326;28;20738;-46
2023/09/16 12:24:23;;;;;;;1.60;1.50;;;;;;;;;;4987510;28;20291;-44
2023/09/16 12:26:51;;;;;;;2.00;1.90;;;;;;;;;;4987503;28;20215;-43
2023/09/16 12:29:18;;;;;;;1.73;1.63;;;;;;;;;;4986948;28;20226;-42
2023/09/16 12:31:46;;;;;;;1.98;1.88;;;;;;;;;;4982556;28;20224;-40
2023/09/16 12:34:18;;;;;;;1.92;1.70;;;;;;;;;;4971947;28;21786;-43
2023/09/16 12:36:50;;;;;;;3.10;1.90;;;;;;;;;;4987924;28;20211;-42
2023/09/16 12:39:17;;;;;;;1.83;1.70;;;;;;;;;;4986238;28;20231;-45
2023/09/16 12:41:46;;;;;;;1.80;1.70;;;;;;;;;;4990556;28;20210;-43
2023/09/16 12:44:14;;;;;;;1.77;1.67;;;;;;;;;;4994501;28;20219;-43
2023/09/16 12:46:41;;;;;;;1.90;1.80;;;;;;;;;;4994033;28;20209;-46
2023/09/16 12:49:09;;;;;;;2.00;1.90;;;;;;;;;;4989984;28;21816;-42
2023/09/16 12:51:39;;;;;;;2.30;2.10;;;;;;;;;;4984858;28;20289;-43
2023/09/16 12:54:08;;;;;;;3.15;1.88;;;;;;;;;;4992472;28;20206;-45
2023/09/16 12:56:39;;;;;;;2.10;1.92;;;;;;;;;;4979284;28;20264;-45
2023/09/16 12:59:06;;;;;;;2.25;2.05;;;;;;;;;;4985951;28;20226;-44
2023/09/16 13:01:33;;;;;;;2.80;2.42;;;;;;;;;;4993324;28;20283;-42
2023/09/16 13:04:02;;;;;;;2.67;1.90;;;;;;;;;;4990196;28;20206;-46
2023/09/16 13:06:31;;;;;;;2.05;1.85;;;;;;;;;;4993526;28;20223;-45
2023/09/16 13:09:01;;;;;;;5.72;2.15;;;;;;;;;;4993515;28;20305;-44
2023/09/16 13:11:28;;;;;;;2.90;1.92;;;;;;;;;;4985779;28;20285;-42
2023/09/16 13:13:57;;;;;;;1.83;1.73;;;;;;;;;;4991612;28;20214;-41
2023/09/16 13:16:25;;;;;;;2.38;2.17;;;;;;;;;;4996183;28;20215;-45
2023/09/16 13:18:53;;;;;;;1.92;1.80;;;;;;;;;;4988981;28;20214;-41
2023/09/16 13:21:20;;;;;;;2.30;2.10;;;;;;;;;;4981325;28;20224;-43
2023/09/16 13:23:51;;;;;;;2.60;2.00;;;;;;;;;;4989413;28;20218;-43
2023/09/16 13:26:21;;;;;;;2.10;2.00;;;;;;;;;;4979114;28;20213;-43
2023/09/16 13:28:55;;;;;;;1.80;1.70;;;;;;;;;;4987273;28;20209;-44
2023/09/16 13:31:23;;;;;;;2.00;1.90;;;;;;;;;;4992239;28;20198;-43
2023/09/16 13:33:53;;;;;;;1.92;1.83;;;;;;;;;;4985188;28;20206;-40
2023/09/16 13:36:21;;;;;;;3.72;2.05;;;;;;;;;;4983090;28;20215;-43
2023/09/16 13:38:48;;;;;;;2.28;2.10;;;;;;;;;;4991491;28;20226;-43
2023/09/16 13:41:15;;;;;;;1.67;1.58;;;;;;;;;;4979615;28;20219;-41
2023/09/16 13:43:44;;;;;;;3.78;1.85;;;;;;;;;;4986084;28;20225;-41
2023/09/16 13:46:12;;;;;;;2.92;1.98;;;;;;;;;;4987755;28;20205;-43
2023/09/16 13:48:40;;;;;;;1.90;1.80;;;;;;;;;;4982490;28;20210;-45
2023/09/16 13:51:08;;;;;;;1.70;1.60;;;;;;;;;;4984420;28;20205;-45
2023/09/16 13:53:36;;;;;;;1.77;1.67;;;;;;;;;;4988756;28;20209;-40
2023/09/16 13:56:05;;;;;;;2.20;2.00;;;;;;;;;;4978560;28;20225;-41
2023/09/16 13:58:33;;;;;;;3.88;2.17;;;;;;;;;;4989000;28;20228;-45
2023/09/16 14:01:01;;;;;;;2.30;2.10;;;;;;;;;;4992279;28;20225;-41
2023/09/16 14:03:28;;;;;;;4.53;2.28;;;;;;;;;;4989822;28;20206;-40
2023/09/16 14:05:56;;;;;;;1.92;1.83;;;;;;;;;;4984053;28;20214;-43
2023/09/16 14:08:23;;;;;;;1.90;1.80;;;;;;;;;;4992567;28;20245;-40
2023/09/16 14:10:50;;;;;;;2.00;1.83;;;;;;;;;;4982559;28;20236;-44
2023/09/16 14:13:18;;;;;;;2.40;2.20;;;;;;;;;;4988338;28;20216;-45
2023/09/16 14:15:45;;;;;;;1.90;1.80;;;;;;;;;;4992671;28;20213;-44
2023/09/16 14:18:14;;;;;;;2.00;1.90;;;;;;;;;;4988602;28;20201;-39
2023/09/16 14:20:41;;;;;;;1.98;1.65;;;;;;;;;;4986878;28;20285;-43
2023/09/16 14:23:08;;;;;;;2.20;2.00;;;;;;;;;;4992068;28;20218;-42
2023/09/16 14:25:36;;;;;;;3.75;1.88;;;;;;;;;;4982055;28;20218;-45
2023/09/16 14:28:03;;;;;;;2.13;2.03;;;;;;;;;;4986604;28;20221;-41
2023/09/16 14:30:31;;;;;;;2.00;1.80;;;;;;;;;;4992256;28;20225;-37
2023/09/16 14:32:58;;;;;;;1.80;1.70;;;;;;;;;;4992158;28;20219;-42
2023/09/16 14:35:27;;;;;;;2.10;2.00;;;;;;;;;;4985727;28;20219;-44
2023/09/16 14:37:55;;;;;;;2.70;2.03;;;;;;;;;;4991673;28;20288;-42
2023/09/16 14:40:22;;;;;;;2.10;2.00;;;;;;;;;;4986090;28;20229;-41
2023/09/16 14:42:49;;;;;;;1.77;1.67;;;;;;;;;;4987814;28;20244;-42
2023/09/16 14:45:16;;;;;;;1.77;1.67;;;;;;;;;;4983969;28;20226;-40
2023/09/16 14:47:44;;;;;;;1.85;1.73;;;;;;;;;;4992203;28;20719;-41
2023/09/16 14:50:12;;;;;;;1.80;1.70;;;;;;;;;;4982261;28;20245;-43